LNI292 WIII-WIBB
Flight info
| Callsign | LNI292 |
|---|---|
| Flight time | 1h 20m |
| Altitude | 36000 |
| Route | GOMEL T10 OVSET |
| Aircraft | B739/M-SDE2E3FGHIRWXY/LB1 |
Departure
| Time | 2026-04-15 07:03 |
|---|---|
| Airport | Soekarno-Hatta International Airport (WIII) |
Arrival
| Time | 2026-04-15 08:23 |
|---|---|
| Airport | Sultan Syarif Kasim II International Airport / Roesmin Nurjadin AFB (WIBB) |
| Time | Latitude | Longitude | Altitude | Speed | Heading |
|---|---|---|---|---|---|
| 2026-04-15 06:36 | -6.13312 | 106.65622 | 42 ft | 0 kts | 38° |
| 2026-04-15 06:54 | -6.13313 | 106.65621 | 42 ft | 0 kts | 38° |
| 2026-04-15 06:54 | -6.13324 | 106.65612 | 42 ft | 3 kts | 38° |
| 2026-04-15 06:55 | -6.13339 | 106.65600 | 42 ft | 3 kts | 39° |
| 2026-04-15 06:55 | -6.13351 | 106.65590 | 42 ft | 3 kts | 49° |
| 2026-04-15 06:55 | -6.13359 | 106.65576 | 42 ft | 3 kts | 93° |
| 2026-04-15 06:55 | -6.13354 | 106.65559 | 42 ft | 3 kts | 126° |
| 2026-04-15 06:56 | -6.13347 | 106.65549 | 42 ft | 1 kts | 129° |
| 2026-04-15 06:56 | -6.13345 | 106.65547 | 42 ft | 0 kts | 129° |
| 2026-04-15 06:58 | -6.13349 | 106.65552 | 42 ft | 0 kts | 129° |
| 2026-04-15 06:58 | -6.13352 | 106.65555 | 42 ft | 7 kts | 129° |
| 2026-04-15 06:58 | -6.13421 | 106.65626 | 42 ft | 16 kts | 157° |
| 2026-04-15 06:59 | -6.13535 | 106.65652 | 42 ft | 18 kts | 214° |
| 2026-04-15 06:59 | -6.13586 | 106.65551 | 42 ft | 17 kts | 248° |
| 2026-04-15 06:59 | -6.13635 | 106.65429 | 42 ft | 20 kts | 248° |
| 2026-04-15 06:59 | -6.13688 | 106.65292 | 42 ft | 22 kts | 248° |
| 2026-04-15 07:00 | -6.13746 | 106.65146 | 42 ft | 22 kts | 246° |
| 2026-04-15 07:00 | -6.13807 | 106.64999 | 42 ft | 23 kts | 248° |
| 2026-04-15 07:00 | -6.13867 | 106.64846 | 42 ft | 24 kts | 249° |
| 2026-04-15 07:00 | -6.13929 | 106.64686 | 42 ft | 25 kts | 248° |
| 2026-04-15 07:01 | -6.13993 | 106.64523 | 42 ft | 26 kts | 249° |
| 2026-04-15 07:01 | -6.14061 | 106.64368 | 42 ft | 24 kts | 243° |
| 2026-04-15 07:01 | -6.14137 | 106.64297 | 42 ft | 14 kts | 175° |
| 2026-04-15 07:01 | -6.14198 | 106.64346 | 42 ft | 11 kts | 126° |
| 2026-04-15 07:02 | -6.14235 | 106.64408 | 42 ft | 6 kts | 85° |
| 2026-04-15 07:02 | -6.14209 | 106.64475 | 42 ft | 26 kts | 68° |
| 2026-04-15 07:02 | -6.14063 | 106.64838 | 42 ft | 86 kts | 67° |
| 2026-04-15 07:02 | -6.13771 | 106.65571 | 43 ft | 139 kts | 68° |
| 2026-04-15 07:03 | -6.13360 | 106.66581 | 297 ft | 161 kts | 65° |
| 2026-04-15 07:03 | -6.12931 | 106.67624 | 868 ft | 165 kts | 65° |
| 2026-04-15 07:03 | -6.12490 | 106.68745 | 1249 ft | 180 kts | 66° |
| 2026-04-15 07:03 | -6.12011 | 106.69960 | 1524 ft | 199 kts | 66° |
| 2026-04-15 07:04 | -6.11463 | 106.71347 | 1804 ft | 226 kts | 68° |
| 2026-04-15 07:04 | -6.11144 | 106.72908 | 2563 ft | 233 kts | 91° |
| 2026-04-15 07:04 | -6.11591 | 106.74460 | 3583 ft | 232 kts | 119° |
| 2026-04-15 07:04 | -6.12643 | 106.75697 | 4521 ft | 234 kts | 139° |
| 2026-04-15 07:05 | -6.14007 | 106.76567 | 5537 ft | 234 kts | 156° |
| 2026-04-15 07:05 | -6.15624 | 106.76896 | 6254 ft | 245 kts | 181° |
| 2026-04-15 07:05 | -6.17304 | 106.76459 | 6959 ft | 257 kts | 205° |
| 2026-04-15 07:05 | -6.18752 | 106.75353 | 7599 ft | 271 kts | 227° |
| 2026-04-15 07:06 | -6.19726 | 106.73691 | 8287 ft | 283 kts | 249° |
| 2026-04-15 07:06 | -6.20171 | 106.71740 | 9037 ft | 290 kts | 259° |
| 2026-04-15 07:06 | -6.20395 | 106.69713 | 9807 ft | 295 kts | 266° |
| 2026-04-15 07:06 | -6.20626 | 106.67679 | 10619 ft | 297 kts | 259° |
| 2026-04-15 07:07 | -6.21021 | 106.65634 | 11372 ft | 303 kts | 256° |
| 2026-04-15 07:07 | -6.21466 | 106.63526 | 11936 ft | 313 kts | 256° |
| 2026-04-15 07:07 | -6.21916 | 106.61341 | 12456 ft | 326 kts | 257° |
| 2026-04-15 07:07 | -6.22394 | 106.59076 | 12937 ft | 338 kts | 257° |
| 2026-04-15 07:08 | -6.22880 | 106.56705 | 13237 ft | 355 kts | 258° |
| 2026-04-15 07:08 | -6.23084 | 106.54166 | 13448 ft | 374 kts | 273° |
| 2026-04-15 07:08 | -6.22489 | 106.51576 | 13696 ft | 390 kts | 291° |
| 2026-04-15 07:08 | -6.21084 | 106.49206 | 14159 ft | 399 kts | 309° |
| 2026-04-15 07:09 | -6.19094 | 106.47257 | 14756 ft | 402 kts | 319° |
| 2026-04-15 07:09 | -6.17016 | 106.45366 | 15315 ft | 405 kts | 315° |
| 2026-04-15 07:09 | -6.15086 | 106.43300 | 15871 ft | 407 kts | 311° |
| 2026-04-15 07:09 | -6.13233 | 106.41188 | 16405 ft | 410 kts | 311° |
| 2026-04-15 07:10 | -6.11293 | 106.39059 | 16936 ft | 413 kts | 315° |
| 2026-04-15 07:10 | -6.09073 | 106.37227 | 17408 ft | 416 kts | 326° |
| 2026-04-15 07:10 | -6.06511 | 106.35856 | 17883 ft | 418 kts | 337° |
| 2026-04-15 07:10 | -6.03763 | 106.34885 | 18352 ft | 421 kts | 344° |
| 2026-04-15 07:11 | -6.00927 | 106.34129 | 18826 ft | 422 kts | 346° |
| 2026-04-15 07:11 | -5.98064 | 106.33435 | 19278 ft | 424 kts | 346° |
| 2026-04-15 07:11 | -5.95187 | 106.32707 | 19683 ft | 427 kts | 346° |
| 2026-04-15 07:11 | -5.92291 | 106.31955 | 20093 ft | 430 kts | 346° |
| 2026-04-15 07:12 | -5.89394 | 106.31193 | 20466 ft | 432 kts | 345° |
| 2026-04-15 07:12 | -5.86480 | 106.30424 | 20858 ft | 434 kts | 346° |
| 2026-04-15 07:12 | -5.83552 | 106.29649 | 21204 ft | 437 kts | 345° |
| 2026-04-15 07:12 | -5.80817 | 106.28925 | 21514 ft | 439 kts | 346° |
| 2026-04-15 07:13 | -5.77896 | 106.28142 | 21834 ft | 441 kts | 344° |
| 2026-04-15 07:13 | -5.75003 | 106.27080 | 22146 ft | 444 kts | 336° |
| 2026-04-15 07:13 | -5.72264 | 106.25634 | 22472 ft | 446 kts | 329° |
| 2026-04-15 07:13 | -5.69688 | 106.23869 | 22765 ft | 449 kts | 324° |
| 2026-04-15 07:14 | -5.67220 | 106.21921 | 23046 ft | 451 kts | 321° |
| 2026-04-15 07:14 | -5.64792 | 106.19913 | 23318 ft | 453 kts | 321° |
| 2026-04-15 07:14 | -5.62339 | 106.17918 | 23598 ft | 455 kts | 322° |
| 2026-04-15 07:14 | -5.59862 | 106.15927 | 23859 ft | 457 kts | 322° |
| 2026-04-15 07:15 | -5.57411 | 106.13965 | 24095 ft | 458 kts | 322° |
| 2026-04-15 07:15 | -5.54908 | 106.11967 | 24337 ft | 460 kts | 322° |
| 2026-04-15 07:15 | -5.52398 | 106.09964 | 24565 ft | 462 kts | 322° |
| 2026-04-15 07:15 | -5.49874 | 106.07952 | 24795 ft | 464 kts | 322° |
| 2026-04-15 07:16 | -5.47339 | 106.05931 | 25003 ft | 466 kts | 322° |
| 2026-04-15 07:16 | -5.44796 | 106.03905 | 25214 ft | 468 kts | 322° |
| 2026-04-15 07:16 | -5.42243 | 106.01867 | 25427 ft | 469 kts | 322° |
| 2026-04-15 07:16 | -5.39694 | 105.99816 | 25630 ft | 471 kts | 322° |
| 2026-04-15 07:17 | -5.37112 | 105.97777 | 25850 ft | 472 kts | 322° |
| 2026-04-15 07:17 | -5.34562 | 105.95756 | 26040 ft | 474 kts | 322° |
| 2026-04-15 07:17 | -5.31935 | 105.93670 | 26234 ft | 476 kts | 322° |
| 2026-04-15 07:17 | -5.29370 | 105.91631 | 26422 ft | 477 kts | 322° |
| 2026-04-15 07:18 | -5.26762 | 105.89558 | 26596 ft | 479 kts | 322° |
| 2026-04-15 07:18 | -5.24144 | 105.87477 | 26778 ft | 480 kts | 322° |
| 2026-04-15 07:18 | -5.21520 | 105.85392 | 26950 ft | 482 kts | 322° |
| 2026-04-15 07:18 | -5.18880 | 105.83295 | 27125 ft | 483 kts | 322° |
| 2026-04-15 07:19 | -5.16200 | 105.81255 | 27292 ft | 485 kts | 325° |
| 2026-04-15 07:19 | -5.13437 | 105.79295 | 27443 ft | 486 kts | 326° |
| 2026-04-15 07:19 | -5.10689 | 105.77387 | 27603 ft | 487 kts | 326° |
| 2026-04-15 07:19 | -5.07909 | 105.75440 | 27749 ft | 489 kts | 326° |
| 2026-04-15 07:20 | -5.05115 | 105.73472 | 27910 ft | 490 kts | 326° |
| 2026-04-15 07:20 | -5.02322 | 105.71496 | 28104 ft | 491 kts | 326° |
| 2026-04-15 07:20 | -4.99535 | 105.69521 | 28324 ft | 490 kts | 326° |
| 2026-04-15 07:20 | -4.96748 | 105.67544 | 28552 ft | 490 kts | 326° |
| 2026-04-15 07:21 | -4.93965 | 105.65568 | 28789 ft | 490 kts | 326° |
| 2026-04-15 07:21 | -4.91190 | 105.63597 | 28994 ft | 490 kts | 326° |
| 2026-04-15 07:21 | -4.88409 | 105.61619 | 29227 ft | 490 kts | 326° |
| 2026-04-15 07:21 | -4.85624 | 105.59639 | 29470 ft | 489 kts | 326° |
| 2026-04-15 07:22 | -4.82847 | 105.57664 | 29668 ft | 490 kts | 326° |
| 2026-04-15 07:22 | -4.80096 | 105.55709 | 29861 ft | 490 kts | 326° |
| 2026-04-15 07:22 | -4.77314 | 105.53733 | 30105 ft | 489 kts | 326° |
| 2026-04-15 07:22 | -4.74542 | 105.51763 | 30345 ft | 489 kts | 326° |
| 2026-04-15 07:23 | -4.71763 | 105.49789 | 30574 ft | 488 kts | 326° |
| 2026-04-15 07:23 | -4.68998 | 105.47825 | 30799 ft | 488 kts | 326° |
| 2026-04-15 07:23 | -4.66226 | 105.45856 | 31027 ft | 487 kts | 326° |
| 2026-04-15 07:23 | -4.63461 | 105.43892 | 31248 ft | 487 kts | 326° |
| 2026-04-15 07:24 | -4.60695 | 105.41928 | 31480 ft | 486 kts | 326° |
| 2026-04-15 07:24 | -4.57931 | 105.39966 | 31660 ft | 487 kts | 326° |
| 2026-04-15 07:24 | -4.55199 | 105.38025 | 31881 ft | 486 kts | 326° |
| 2026-04-15 07:24 | -4.52447 | 105.36072 | 32147 ft | 485 kts | 326° |
| 2026-04-15 07:25 | -4.49692 | 105.34116 | 32353 ft | 485 kts | 326° |
| 2026-04-15 07:25 | -4.46942 | 105.32164 | 32555 ft | 485 kts | 326° |
| 2026-04-15 07:25 | -4.44190 | 105.30211 | 32772 ft | 484 kts | 326° |
| 2026-04-15 07:25 | -4.41442 | 105.28261 | 32982 ft | 483 kts | 326° |
| 2026-04-15 07:26 | -4.38705 | 105.26318 | 33222 ft | 482 kts | 326° |
| 2026-04-15 07:26 | -4.35968 | 105.24376 | 33412 ft | 482 kts | 325° |
| 2026-04-15 07:26 | -4.33224 | 105.22427 | 33607 ft | 482 kts | 325° |
| 2026-04-15 07:26 | -4.30492 | 105.20488 | 33806 ft | 481 kts | 325° |
| 2026-04-15 07:27 | -4.27762 | 105.18552 | 34001 ft | 481 kts | 325° |
| 2026-04-15 07:27 | -4.25063 | 105.16638 | 34194 ft | 480 kts | 325° |
| 2026-04-15 07:27 | -4.22335 | 105.14703 | 34386 ft | 480 kts | 325° |
| 2026-04-15 07:27 | -4.19611 | 105.12771 | 34577 ft | 479 kts | 325° |
| 2026-04-15 07:28 | -4.16890 | 105.10842 | 34807 ft | 478 kts | 325° |
| 2026-04-15 07:28 | -4.14181 | 105.08921 | 35013 ft | 477 kts | 325° |
| 2026-04-15 07:28 | -4.11475 | 105.07002 | 35166 ft | 477 kts | 324° |
| 2026-04-15 07:28 | -4.08867 | 105.04953 | 35330 ft | 477 kts | 320° |
| 2026-04-15 07:29 | -4.06381 | 105.02748 | 35495 ft | 476 kts | 318° |
| 2026-04-15 07:29 | -4.03971 | 105.00477 | 35691 ft | 475 kts | 316° |
| 2026-04-15 07:29 | -4.01580 | 104.98189 | 35828 ft | 475 kts | 317° |
| 2026-04-15 07:29 | -3.99206 | 104.95935 | 35834 ft | 476 kts | 317° |
| 2026-04-15 07:30 | -3.94378 | 104.91384 | 35844 ft | 476 kts | 317° |
| 2026-04-15 07:30 | -3.89550 | 104.86854 | 35846 ft | 475 kts | 317° |
| 2026-04-15 07:31 | -3.84718 | 104.82330 | 35846 ft | 475 kts | 317° |
| 2026-04-15 07:31 | -3.79895 | 104.77812 | 35846 ft | 474 kts | 317° |
| 2026-04-15 07:32 | -3.75105 | 104.73330 | 35846 ft | 474 kts | 317° |
| 2026-04-15 07:32 | -3.70284 | 104.68822 | 35847 ft | 474 kts | 317° |
| 2026-04-15 07:33 | -3.65463 | 104.64313 | 35847 ft | 473 kts | 317° |
| 2026-04-15 07:33 | -3.60645 | 104.59810 | 35847 ft | 473 kts | 317° |
| 2026-04-15 07:34 | -3.55830 | 104.55309 | 35847 ft | 473 kts | 317° |
| 2026-04-15 07:34 | -3.51045 | 104.50838 | 35847 ft | 473 kts | 317° |
| 2026-04-15 07:35 | -3.46229 | 104.46338 | 35847 ft | 474 kts | 317° |
| 2026-04-15 07:35 | -3.41406 | 104.41832 | 35847 ft | 473 kts | 317° |
| 2026-04-15 07:36 | -3.36591 | 104.37335 | 35847 ft | 474 kts | 317° |
| 2026-04-15 07:36 | -3.31767 | 104.32829 | 35847 ft | 474 kts | 317° |
| 2026-04-15 07:37 | -3.26972 | 104.28351 | 35847 ft | 475 kts | 317° |
| 2026-04-15 07:37 | -3.22138 | 104.23838 | 35847 ft | 475 kts | 317° |
| 2026-04-15 07:38 | -3.17298 | 104.19320 | 35847 ft | 475 kts | 317° |
| 2026-04-15 07:38 | -3.12462 | 104.14806 | 35847 ft | 476 kts | 317° |
| 2026-04-15 07:39 | -3.07655 | 104.10319 | 35846 ft | 476 kts | 317° |
| 2026-04-15 07:39 | -3.02788 | 104.05777 | 35846 ft | 476 kts | 317° |
| 2026-04-15 07:40 | -2.97961 | 104.01273 | 35845 ft | 477 kts | 317° |
| 2026-04-15 07:40 | -2.93105 | 103.96742 | 35845 ft | 476 kts | 317° |
| 2026-04-15 07:41 | -2.88258 | 103.92221 | 35845 ft | 477 kts | 317° |
| 2026-04-15 07:41 | -2.83396 | 103.87686 | 35846 ft | 478 kts | 317° |
| 2026-04-15 07:42 | -2.78540 | 103.83157 | 35846 ft | 478 kts | 317° |
| 2026-04-15 07:42 | -2.73667 | 103.78613 | 35846 ft | 479 kts | 317° |
| 2026-04-15 07:43 | -2.68792 | 103.74067 | 35846 ft | 479 kts | 317° |
| 2026-04-15 07:43 | -2.63952 | 103.69554 | 35846 ft | 479 kts | 317° |
| 2026-04-15 07:44 | -2.59071 | 103.65004 | 35846 ft | 480 kts | 317° |
| 2026-04-15 07:44 | -2.54188 | 103.60451 | 35846 ft | 480 kts | 317° |
| 2026-04-15 07:45 | -2.49308 | 103.55902 | 35846 ft | 480 kts | 317° |
| 2026-04-15 07:45 | -2.44428 | 103.51354 | 35847 ft | 480 kts | 317° |
| 2026-04-15 07:46 | -2.39575 | 103.46831 | 35846 ft | 480 kts | 317° |
| 2026-04-15 07:46 | -2.34688 | 103.42280 | 35846 ft | 480 kts | 317° |
| 2026-04-15 07:47 | -2.29808 | 103.37726 | 35846 ft | 480 kts | 317° |
| 2026-04-15 07:47 | -2.24932 | 103.33174 | 35846 ft | 480 kts | 317° |
| 2026-04-15 07:48 | -2.20056 | 103.28621 | 35846 ft | 480 kts | 317° |
| 2026-04-15 07:48 | -2.15212 | 103.24097 | 35846 ft | 479 kts | 317° |
| 2026-04-15 07:49 | -2.10332 | 103.19540 | 35845 ft | 479 kts | 317° |
| 2026-04-15 07:49 | -2.05446 | 103.14976 | 35846 ft | 479 kts | 317° |
| 2026-04-15 07:50 | -2.00607 | 103.10456 | 35845 ft | 479 kts | 317° |
| 2026-04-15 07:50 | -1.96523 | 103.06642 | 35845 ft | 479 kts | 317° |
| 2026-04-15 07:51 | -1.91650 | 103.02092 | 35845 ft | 479 kts | 317° |
| 2026-04-15 07:51 | -1.86816 | 102.97579 | 35846 ft | 478 kts | 317° |
| 2026-04-15 07:52 | -1.81949 | 102.93035 | 35844 ft | 478 kts | 317° |
| 2026-04-15 07:52 | -1.77082 | 102.88490 | 35844 ft | 478 kts | 317° |
| 2026-04-15 07:53 | -1.72228 | 102.83959 | 35843 ft | 477 kts | 317° |
| 2026-04-15 07:53 | -1.67379 | 102.79433 | 35843 ft | 477 kts | 317° |
| 2026-04-15 07:54 | -1.62554 | 102.74929 | 35843 ft | 477 kts | 317° |
| 2026-04-15 07:54 | -1.57662 | 102.70422 | 35842 ft | 477 kts | 320° |
| 2026-04-15 07:55 | -1.52260 | 102.66566 | 35842 ft | 477 kts | 328° |
| 2026-04-15 07:56 | -1.43806 | 102.61292 | 35841 ft | 477 kts | 328° |
| 2026-04-15 07:56 | -1.38214 | 102.57783 | 35840 ft | 477 kts | 328° |
| 2026-04-15 07:57 | -1.32579 | 102.54242 | 35840 ft | 477 kts | 328° |
| 2026-04-15 07:57 | -1.26959 | 102.50709 | 35839 ft | 477 kts | 328° |
| 2026-04-15 07:58 | -1.21338 | 102.47174 | 35839 ft | 477 kts | 328° |
| 2026-04-15 07:58 | -1.15715 | 102.43638 | 35838 ft | 477 kts | 328° |
| 2026-04-15 07:58 | -1.12934 | 102.41889 | 35589 ft | 481 kts | 328° |
| 2026-04-15 07:59 | -1.10097 | 102.40106 | 34978 ft | 481 kts | 328° |
| 2026-04-15 07:59 | -1.07252 | 102.38317 | 34149 ft | 483 kts | 327° |
| 2026-04-15 07:59 | -1.04409 | 102.36530 | 33334 ft | 483 kts | 327° |
| 2026-04-15 07:59 | -1.01483 | 102.34884 | 32500 ft | 483 kts | 335° |
| 2026-04-15 08:00 | -0.98326 | 102.33740 | 31688 ft | 483 kts | 345° |
| 2026-04-15 08:00 | -0.95022 | 102.33125 | 30731 ft | 485 kts | 354° |
| 2026-04-15 08:00 | -0.91688 | 102.32954 | 29835 ft | 485 kts | 0° |
| 2026-04-15 08:00 | -0.88319 | 102.33022 | 29141 ft | 481 kts | 2° |
| 2026-04-15 08:01 | -0.84992 | 102.33123 | 28471 ft | 477 kts | 1° |
| 2026-04-15 08:01 | -0.81688 | 102.33180 | 27808 ft | 472 kts | 1° |
| 2026-04-15 08:01 | -0.78417 | 102.33215 | 27150 ft | 467 kts | 1° |
| 2026-04-15 08:01 | -0.75186 | 102.33240 | 26499 ft | 463 kts | 1° |
| 2026-04-15 08:02 | -0.71968 | 102.33261 | 25850 ft | 459 kts | 1° |
| 2026-04-15 08:02 | -0.68794 | 102.33280 | 25205 ft | 455 kts | 1° |
| 2026-04-15 08:02 | -0.65688 | 102.33298 | 24573 ft | 451 kts | 1° |
| 2026-04-15 08:02 | -0.62556 | 102.33316 | 23936 ft | 447 kts | 1° |
| 2026-04-15 08:03 | -0.59455 | 102.33333 | 23301 ft | 443 kts | 1° |
| 2026-04-15 08:03 | -0.56379 | 102.33350 | 22673 ft | 439 kts | 1° |
| 2026-04-15 08:03 | -0.53376 | 102.33329 | 22053 ft | 435 kts | 357° |
| 2026-04-15 08:03 | -0.50422 | 102.32750 | 21435 ft | 432 kts | 341° |
| 2026-04-15 08:04 | -0.47750 | 102.31439 | 20773 ft | 430 kts | 327° |
| 2026-04-15 08:04 | -0.45378 | 102.29629 | 20129 ft | 427 kts | 319° |
| 2026-04-15 08:04 | -0.43218 | 102.27619 | 19511 ft | 423 kts | 316° |
| 2026-04-15 08:04 | -0.41154 | 102.25537 | 18901 ft | 420 kts | 315° |
| 2026-04-15 08:05 | -0.39108 | 102.23470 | 18295 ft | 416 kts | 315° |
| 2026-04-15 08:05 | -0.37067 | 102.21442 | 17697 ft | 412 kts | 316° |
| 2026-04-15 08:05 | -0.35032 | 102.19441 | 17100 ft | 409 kts | 316° |
| 2026-04-15 08:05 | -0.33003 | 102.17456 | 16505 ft | 405 kts | 316° |
| 2026-04-15 08:06 | -0.30999 | 102.15503 | 15919 ft | 401 kts | 316° |
| 2026-04-15 08:06 | -0.29008 | 102.13567 | 15331 ft | 398 kts | 316° |
| 2026-04-15 08:06 | -0.27028 | 102.11644 | 14741 ft | 395 kts | 315° |
| 2026-04-15 08:06 | -0.25071 | 102.09745 | 14158 ft | 391 kts | 315° |
| 2026-04-15 08:07 | -0.23122 | 102.07854 | 13575 ft | 388 kts | 315° |
| 2026-04-15 08:07 | -0.21223 | 102.06012 | 13002 ft | 385 kts | 315° |
| 2026-04-15 08:07 | -0.19309 | 102.04156 | 12417 ft | 381 kts | 315° |
| 2026-04-15 08:07 | -0.17412 | 102.02316 | 11784 ft | 379 kts | 314° |
| 2026-04-15 08:08 | -0.15522 | 102.00484 | 11178 ft | 377 kts | 315° |
| 2026-04-15 08:08 | -0.13645 | 101.98665 | 10595 ft | 374 kts | 315° |
| 2026-04-15 08:08 | -0.11806 | 101.96881 | 10333 ft | 361 kts | 315° |
| 2026-04-15 08:08 | -0.10052 | 101.95180 | 10263 ft | 344 kts | 315° |
| 2026-04-15 08:09 | -0.08372 | 101.93552 | 10184 ft | 328 kts | 315° |
| 2026-04-15 08:09 | -0.06772 | 101.91999 | 10104 ft | 314 kts | 315° |
| 2026-04-15 08:09 | -0.05256 | 101.90530 | 10026 ft | 300 kts | 315° |
| 2026-04-15 08:09 | -0.03797 | 101.89116 | 9948 ft | 287 kts | 315° |
| 2026-04-15 08:10 | -0.02366 | 101.87729 | 9494 ft | 289 kts | 315° |
| 2026-04-15 08:10 | -0.00925 | 101.86332 | 9088 ft | 288 kts | 315° |
| 2026-04-15 08:10 | 0.00511 | 101.84940 | 8706 ft | 287 kts | 315° |
| 2026-04-15 08:10 | 0.01942 | 101.83552 | 8331 ft | 285 kts | 316° |
| 2026-04-15 08:11 | 0.03360 | 101.82177 | 7959 ft | 284 kts | 316° |
| 2026-04-15 08:11 | 0.04773 | 101.80807 | 7590 ft | 282 kts | 316° |
| 2026-04-15 08:11 | 0.06177 | 101.79446 | 7222 ft | 280 kts | 316° |
| 2026-04-15 08:11 | 0.07572 | 101.78093 | 6856 ft | 278 kts | 316° |
| 2026-04-15 08:12 | 0.08958 | 101.76750 | 6490 ft | 277 kts | 316° |
| 2026-04-15 08:12 | 0.10335 | 101.75416 | 6121 ft | 275 kts | 316° |
| 2026-04-15 08:12 | 0.11683 | 101.74058 | 5741 ft | 274 kts | 310° |
| 2026-04-15 08:12 | 0.12671 | 101.72473 | 5375 ft | 272 kts | 294° |
| 2026-04-15 08:13 | 0.13308 | 101.70697 | 4999 ft | 271 kts | 285° |
| 2026-04-15 08:13 | 0.13710 | 101.68860 | 4629 ft | 270 kts | 280° |
| 2026-04-15 08:13 | 0.14053 | 101.67024 | 4263 ft | 268 kts | 281° |
| 2026-04-15 08:13 | 0.14433 | 101.65204 | 3899 ft | 267 kts | 282° |
| 2026-04-15 08:14 | 0.14834 | 101.63413 | 3671 ft | 260 kts | 282° |
| 2026-04-15 08:14 | 0.15223 | 101.61694 | 3603 ft | 247 kts | 282° |
| 2026-04-15 08:14 | 0.15591 | 101.60075 | 3573 ft | 231 kts | 282° |
| 2026-04-15 08:14 | 0.15935 | 101.58555 | 3501 ft | 217 kts | 282° |
| 2026-04-15 08:15 | 0.16246 | 101.57129 | 3465 ft | 202 kts | 282° |
| 2026-04-15 08:15 | 0.16546 | 101.55827 | 3403 ft | 189 kts | 282° |
| 2026-04-15 08:15 | 0.16836 | 101.54571 | 3358 ft | 183 kts | 282° |
| 2026-04-15 08:15 | 0.17116 | 101.53349 | 3323 ft | 179 kts | 282° |
| 2026-04-15 08:16 | 0.17393 | 101.52137 | 3293 ft | 179 kts | 282° |
| 2026-04-15 08:16 | 0.17671 | 101.50920 | 3264 ft | 180 kts | 281° |
| 2026-04-15 08:16 | 0.17949 | 101.49700 | 3229 ft | 181 kts | 281° |
| 2026-04-15 08:16 | 0.18227 | 101.48475 | 3188 ft | 180 kts | 282° |
| 2026-04-15 08:17 | 0.18506 | 101.47250 | 3155 ft | 180 kts | 281° |
| 2026-04-15 08:17 | 0.18783 | 101.46029 | 3115 ft | 180 kts | 281° |
| 2026-04-15 08:17 | 0.19180 | 101.44847 | 3033 ft | 183 kts | 300° |
| 2026-04-15 08:17 | 0.20241 | 101.44174 | 3001 ft | 185 kts | 342° |
| 2026-04-15 08:18 | 0.21521 | 101.43993 | 3073 ft | 187 kts | 353° |
| 2026-04-15 08:18 | 0.22842 | 101.43909 | 2886 ft | 194 kts | 356° |
| 2026-04-15 08:18 | 0.24156 | 101.43888 | 2722 ft | 189 kts | 358° |
| 2026-04-15 08:18 | 0.25437 | 101.43899 | 2638 ft | 182 kts | 359° |
| 2026-04-15 08:19 | 0.26707 | 101.43922 | 2573 ft | 181 kts | 360° |
| 2026-04-15 08:19 | 0.27973 | 101.43951 | 2511 ft | 182 kts | 0° |
| 2026-04-15 08:19 | 0.29253 | 101.43984 | 2420 ft | 186 kts | 0° |
| 2026-04-15 08:19 | 0.30550 | 101.44019 | 2292 ft | 186 kts | 0° |
| 2026-04-15 08:20 | 0.31812 | 101.44054 | 2175 ft | 180 kts | 0° |
| 2026-04-15 08:20 | 0.33044 | 101.44088 | 2050 ft | 175 kts | 0° |
| 2026-04-15 08:20 | 0.34246 | 101.44121 | 1969 ft | 171 kts | 0° |
| 2026-04-15 08:20 | 0.35435 | 101.44154 | 1961 ft | 171 kts | 0° |
| 2026-04-15 08:21 | 0.36630 | 101.44188 | 1806 ft | 169 kts | 0° |
| 2026-04-15 08:21 | 0.37791 | 101.44220 | 1550 ft | 163 kts | 0° |
| 2026-04-15 08:21 | 0.38881 | 101.44250 | 1339 ft | 153 kts | 0° |
| 2026-04-15 08:21 | 0.39924 | 101.44280 | 1126 ft | 148 kts | 0° |
| 2026-04-15 08:22 | 0.40949 | 101.44308 | 936 ft | 147 kts | 1° |
| 2026-04-15 08:22 | 0.41965 | 101.44336 | 744 ft | 146 kts | 1° |
| 2026-04-15 08:22 | 0.42974 | 101.44365 | 552 ft | 146 kts | 1° |
| 2026-04-15 08:22 | 0.44004 | 101.44396 | 322 ft | 146 kts | 1° |
| 2026-04-15 08:23 | 0.44995 | 101.44422 | 145 ft | 142 kts | 1° |
| 2026-04-15 08:23 | 0.45871 | 101.44443 | 125 ft | 95 kts | 2° |
| 2026-04-15 08:23 | 0.46367 | 101.44455 | 125 ft | 37 kts | 1° |
| 2026-04-15 08:23 | 0.46414 | 101.44467 | 125 ft | 4 kts | 79° |
| 2026-04-15 08:24 | 0.46395 | 101.44487 | 125 ft | 7 kts | 142° |
| 2026-04-15 08:24 | 0.46381 | 101.44523 | 125 ft | 3 kts | 78° |
| 2026-04-15 08:24 | 0.46394 | 101.44554 | 125 ft | 6 kts | 66° |
| 2026-04-15 08:24 | 0.46400 | 101.44597 | 125 ft | 6 kts | 92° |
| 2026-04-15 08:25 | 0.46398 | 101.44639 | 125 ft | 6 kts | 92° |
| 2026-04-15 08:25 | 0.46398 | 101.44676 | 125 ft | 1 kts | 92° |
| 2026-04-15 08:25 | 0.46397 | 101.44680 | 125 ft | 0 kts | 92° |